createdAt,value
2017-11-25T00:01:35.792Z,96548.07
2017-11-25T00:04:02.126Z,96544.77
2017-11-25T00:06:28.488Z,96540.42
2017-11-25T00:08:55.178Z,96529.77
2017-11-25T00:11:21.964Z,96525.70
2017-11-25T00:13:48.472Z,96518.50
2017-11-25T00:16:15.100Z,96509.56
2017-11-25T00:18:41.579Z,96507.97
2017-11-25T00:21:08.170Z,96515.80
2017-11-25T00:23:34.814Z,96512.36
2017-11-25T00:26:01.390Z,96504.16
2017-11-25T00:28:28.349Z,96498.55
2017-11-25T00:30:54.882Z,96503.29
2017-11-25T00:33:21.493Z,96502.19
2017-11-25T00:35:48.256Z,96504.44
2017-11-25T00:38:14.579Z,96503.05
2017-11-25T00:40:41.176Z,96499.61
2017-11-25T00:43:07.581Z,96493.16
2017-11-25T00:45:34.102Z,96489.66
2017-11-25T00:48:00.608Z,96482.44
2017-11-25T00:50:26.959Z,96483.07
2017-11-25T00:52:53.696Z,96477.05
2017-11-25T00:55:20.190Z,96474.94
2017-11-25T00:57:46.482Z,96459.61
2017-11-25T01:00:13.125Z,96467.62
2017-11-25T01:02:39.701Z,96469.20
2017-11-25T01:05:07.082Z,96470.34
2017-11-25T01:07:33.565Z,96472.86
2017-11-25T01:09:59.985Z,96470.39
2017-11-25T01:12:26.619Z,96454.94
2017-11-25T01:14:53.319Z,96446.92
2017-11-25T01:17:20.193Z,96449.16
2017-11-25T01:19:46.722Z,96443.05
2017-11-25T01:22:13.158Z,96444.44
2017-11-25T01:24:39.737Z,96444.05
2017-11-25T01:27:06.324Z,96434.27
2017-11-25T01:29:32.831Z,96425.38
2017-11-25T01:31:59.188Z,96420.61
2017-11-25T01:34:25.607Z,96416.06
2017-11-25T01:36:52.389Z,96408.36
2017-11-25T01:39:18.773Z,96395.42
2017-11-25T01:41:45.366Z,96395.91
2017-11-25T01:44:11.760Z,96394.14
2017-11-25T01:46:38.400Z,96394.31
2017-11-25T01:49:04.775Z,96384.59
2017-11-25T01:51:31.254Z,96378.33
2017-11-25T01:53:57.858Z,96366.81
2017-11-25T01:56:24.301Z,96361.52
2017-11-25T01:58:50.717Z,96362.42
2017-11-25T02:01:17.043Z,96354.55
2017-11-25T02:03:43.734Z,96358.22
2017-11-25T02:06:10.082Z,96359.55
2017-11-25T02:08:36.698Z,96362.23
2017-11-25T02:11:03.463Z,96366.72
2017-11-25T02:13:29.738Z,96362.14
2017-11-25T02:15:56.486Z,96346.04
2017-11-25T02:18:23.188Z,96341.52
2017-11-25T02:20:49.563Z,96327.66
2017-11-25T02:23:16.344Z,96323.89
2017-11-25T02:25:42.943Z,96331.58
2017-11-25T02:28:09.653Z,96328.23
2017-11-25T02:30:36.101Z,96327.42
2017-11-25T02:33:02.768Z,96323.70
2017-11-25T02:35:29.537Z,96313.38
2017-11-25T02:37:56.008Z,96304.69
2017-11-25T02:40:22.498Z,96299.23
2017-11-25T02:42:49.029Z,96310.10
2017-11-25T02:45:15.561Z,96308.34
2017-11-25T02:47:42.091Z,96305.37
2017-11-25T02:50:08.480Z,96303.94
2017-11-25T02:52:34.918Z,96292.48
2017-11-25T02:55:01.344Z,96292.06
2017-11-25T02:57:27.967Z,96283.70
2017-11-25T02:59:54.468Z,96269.67
2017-11-25T03:02:21.074Z,96246.20
2017-11-25T03:04:47.353Z,96251.94
2017-11-25T03:07:13.930Z,96253.70
2017-11-25T03:09:40.604Z,96237.42
2017-11-25T03:12:06.934Z,96242.91
2017-11-25T03:14:33.495Z,96244.91
2017-11-25T03:16:59.903Z,96232.12
2017-11-25T03:19:26.350Z,96241.92
2017-11-25T03:21:52.844Z,96213.45
2017-11-25T03:24:19.416Z,96210.95
2017-11-25T03:26:45.779Z,96204.42
2017-11-25T03:29:12.140Z,96200.95
2017-11-25T03:31:38.642Z,96199.03
2017-11-25T03:34:05.059Z,96186.73
2017-11-25T03:36:31.416Z,96181.97
2017-11-25T03:38:57.865Z,96183.48
2017-11-25T03:41:24.411Z,96178.00
2017-11-25T03:43:50.703Z,96167.98
2017-11-25T03:46:17.292Z,96161.64
2017-11-25T03:48:43.885Z,96162.20
2017-11-25T03:51:10.154Z,96157.10
2017-11-25T03:53:37.056Z,96155.00
2017-11-25T03:56:03.771Z,96150.58
2017-11-25T03:58:30.348Z,96149.05
2017-11-25T04:00:56.751Z,96149.71
2017-11-25T04:03:23.256Z,96135.75
2017-11-25T04:05:49.617Z,96144.41
2017-11-25T04:08:15.974Z,96132.64
2017-11-25T04:10:43.368Z,96126.83
2017-11-25T04:13:09.633Z,96127.72
2017-11-25T04:15:36.074Z,96135.97
2017-11-25T04:18:02.418Z,96134.20
2017-11-25T04:20:28.727Z,96131.02
2017-11-25T04:22:55.116Z,96111.77
2017-11-25T04:25:21.481Z,96111.42
2017-11-25T04:27:47.945Z,96105.61
2017-11-25T04:30:14.419Z,96103.94
2017-11-25T04:32:40.863Z,96103.08
2017-11-25T04:35:07.254Z,96104.66
2017-11-25T04:37:33.508Z,96091.87
2017-11-25T04:39:59.992Z,96082.92
2017-11-25T04:42:26.350Z,96085.34
2017-11-25T04:44:52.853Z,96081.39
2017-11-25T04:47:19.579Z,96082.48
2017-11-25T04:49:45.877Z,96081.72
2017-11-25T04:52:12.182Z,96064.80
2017-11-25T04:54:38.692Z,96054.27
2017-11-25T04:57:04.979Z,96065.77
2017-11-25T04:59:31.287Z,96056.03
2017-11-25T05:01:57.792Z,96055.61
2017-11-25T05:04:24.253Z,96048.08
2017-11-25T05:06:50.795Z,96044.08
2017-11-25T05:09:17.378Z,96044.93
2017-11-25T05:11:43.814Z,96043.51
2017-11-25T05:14:10.357Z,96054.38
2017-11-25T05:16:37.082Z,96052.31
2017-11-25T05:19:03.674Z,96043.98
2017-11-25T05:21:30.217Z,96051.51
2017-11-25T05:23:56.760Z,96058.03
2017-11-25T05:26:23.543Z,96048.69
2017-11-25T05:28:49.664Z,96043.27
2017-11-25T05:31:15.733Z,96053.04
2017-11-25T05:33:41.939Z,96045.31
2017-11-25T05:36:08.075Z,96049.27
2017-11-25T05:38:34.682Z,96058.98
2017-11-25T05:41:01.185Z,96064.95
2017-11-25T05:43:28.175Z,96054.63
2017-11-25T05:45:54.777Z,96069.84
2017-11-25T05:48:21.007Z,96081.24
2017-11-25T05:50:47.413Z,96085.70
2017-11-25T05:53:13.713Z,96085.94
2017-11-25T05:55:39.761Z,96093.45
2017-11-25T05:58:05.924Z,96103.36
2017-11-25T06:00:32.192Z,96102.36
2017-11-25T06:02:58.253Z,96106.02
2017-11-25T06:05:24.335Z,96092.52
2017-11-25T06:07:50.383Z,96098.95
2017-11-25T06:10:16.432Z,96109.38
2017-11-25T06:12:43.056Z,96116.55
2017-11-25T06:15:09.173Z,96136.42
2017-11-25T06:17:35.253Z,96140.02
2017-11-25T06:20:01.407Z,96141.84
2017-11-25T06:22:27.714Z,96150.86
2017-11-25T06:24:53.817Z,96161.22
2017-11-25T06:27:19.899Z,96159.81
2017-11-25T06:29:46.028Z,96169.69
2017-11-25T06:32:12.185Z,96187.52
2017-11-25T06:34:38.357Z,96188.14
2017-11-25T06:37:04.804Z,96200.12
2017-11-25T06:39:31.035Z,96199.93
2017-11-25T06:41:58.514Z,96204.72
2017-11-25T06:44:24.692Z,96212.01
2017-11-25T06:46:50.894Z,96209.95
2017-11-25T06:49:17.304Z,96230.03
2017-11-25T06:51:43.405Z,96233.73
2017-11-25T06:54:09.636Z,96237.41
2017-11-25T06:56:35.762Z,96241.63
2017-11-25T06:59:01.921Z,96251.44
2017-11-25T07:01:27.957Z,96250.39
2017-11-25T07:03:54.078Z,96260.20
2017-11-25T07:06:20.323Z,96270.00
2017-11-25T07:08:46.428Z,96272.72
2017-11-25T07:11:13.055Z,96268.17
2017-11-25T07:13:39.425Z,96270.84
2017-11-25T07:16:06.285Z,96273.41
2017-11-25T07:18:32.895Z,96284.54
2017-11-25T07:20:58.965Z,96295.98
2017-11-25T07:23:25.769Z,96294.50
2017-11-25T07:25:52.318Z,96304.12
2017-11-25T07:28:18.707Z,96304.00
2017-11-25T07:30:46.138Z,96308.86
2017-11-25T07:33:12.661Z,96302.69
2017-11-25T07:35:39.026Z,96316.39
2017-11-25T07:38:05.235Z,96324.84
2017-11-25T07:40:39.494Z,96316.98
2017-11-25T07:48:15.091Z,96322.38
2017-11-25T07:50:41.452Z,96342.59
2017-11-25T07:53:07.882Z,96347.89
2017-11-25T07:55:34.330Z,96358.42
2017-11-25T07:58:01.776Z,96365.52
2017-11-25T08:00:29.206Z,96358.73
2017-11-25T08:02:55.646Z,96361.81
2017-11-25T08:05:23.247Z,96362.40
2017-11-25T08:07:49.310Z,96368.22
2017-11-25T08:10:15.532Z,96382.31
2017-11-25T08:12:41.794Z,96386.83
2017-11-25T08:15:08.288Z,96392.16
2017-11-25T08:17:34.386Z,96397.92
2017-11-25T08:20:01.052Z,96408.28
2017-11-25T08:22:27.247Z,96409.14
2017-11-25T08:24:53.497Z,96417.69
2017-11-25T08:27:19.903Z,96418.30
2017-11-25T08:29:46.197Z,96418.16
2017-11-25T08:32:12.490Z,96426.72
2017-11-25T08:34:38.819Z,96430.66
2017-11-25T08:37:05.549Z,96440.81
2017-11-25T08:39:31.756Z,96443.34
2017-11-25T08:41:58.069Z,96453.52
2017-11-25T08:44:24.178Z,96451.68
2017-11-25T08:46:50.525Z,96466.07
2017-11-25T08:49:16.570Z,96463.20
2017-11-25T08:51:42.707Z,96471.19
2017-11-25T08:54:08.880Z,96472.52
2017-11-25T08:56:35.125Z,96475.45
2017-11-25T08:59:01.426Z,96480.92
2017-11-25T09:01:28.314Z,96481.77
2017-11-25T09:03:55.767Z,96487.39
2017-11-25T09:06:21.897Z,96495.17
2017-11-25T09:08:48.455Z,96494.95
2017-11-25T09:11:14.885Z,96503.63
2017-11-25T09:13:40.963Z,96511.63
2017-11-25T09:16:07.192Z,96518.16
2017-11-25T09:18:34.210Z,96528.38
2017-11-25T09:21:00.333Z,96528.28
2017-11-25T09:23:26.598Z,96532.70
2017-11-25T09:25:52.869Z,96545.76
2017-11-25T09:28:19.302Z,96551.52
2017-11-25T09:30:45.511Z,96556.89
2017-11-25T09:33:11.651Z,96558.91
2017-11-25T09:35:37.883Z,96567.19
2017-11-25T09:38:05.472Z,96568.24
2017-11-25T09:40:34.714Z,96578.66
2017-11-25T09:43:01.022Z,96585.53
2017-11-25T09:45:27.174Z,96586.06
2017-11-25T09:47:53.422Z,96591.81
2017-11-25T09:50:19.599Z,96603.08
2017-11-25T09:52:46.225Z,96607.72
2017-11-25T09:55:16.112Z,96610.50
2017-11-25T09:57:42.532Z,96614.30
2017-11-25T10:00:08.653Z,96614.35
2017-11-25T10:02:34.874Z,96621.51
2017-11-25T10:05:00.975Z,96628.91
2017-11-25T10:07:27.092Z,96617.30
2017-11-25T10:09:53.376Z,96620.11
2017-11-25T10:12:19.522Z,96624.69
2017-11-25T10:14:46.167Z,96627.08
2017-11-25T10:17:12.405Z,96631.97
2017-11-25T10:19:38.501Z,96639.59
2017-11-25T10:22:04.795Z,96646.28
2017-11-25T10:24:31.046Z,96645.81
2017-11-25T10:26:57.440Z,96645.62
2017-11-25T10:29:23.650Z,96655.00
2017-11-25T10:31:50.177Z,96651.91
2017-11-25T10:34:16.345Z,96649.18
2017-11-25T10:36:42.479Z,96658.56
2017-11-25T10:39:08.771Z,96657.27
2017-11-25T10:41:35.333Z,96660.13
2017-11-25T10:44:01.493Z,96668.81
2017-11-25T10:46:28.041Z,96667.84
2017-11-25T10:48:54.574Z,96676.95
2017-11-25T10:51:20.726Z,96677.11
2017-11-25T10:53:46.902Z,96685.44
2017-11-25T10:56:13.141Z,96683.45
2017-11-25T10:58:39.307Z,96684.77
2017-11-25T11:01:05.461Z,96687.94
2017-11-25T11:03:31.591Z,96686.18
2017-11-25T11:05:57.718Z,96684.93
2017-11-25T11:08:23.844Z,96688.88
2017-11-25T11:10:50.041Z,96687.63
2017-11-25T11:13:16.631Z,96690.21
2017-11-25T11:15:42.865Z,96690.52
2017-11-25T11:18:09.009Z,96692.09
2017-11-25T11:20:35.184Z,96690.48
2017-11-25T11:23:01.312Z,96695.18
2017-11-25T11:25:27.449Z,96692.72
2017-11-25T11:27:53.856Z,96697.41
2017-11-25T11:30:19.890Z,96700.45
2017-11-25T11:32:45.946Z,96697.84
2017-11-25T11:35:12.274Z,96704.30
2017-11-25T11:37:38.313Z,96703.52
2017-11-25T11:40:04.399Z,96703.78
2017-11-25T11:42:30.457Z,96710.43
2017-11-25T11:44:56.511Z,96709.37
2017-11-25T11:47:22.601Z,96709.50
2017-11-25T11:49:48.715Z,96709.03
2017-11-25T11:52:14.891Z,96719.55
2017-11-25T11:54:41.089Z,96723.30
2017-11-25T11:57:07.187Z,96715.72
2017-11-25T11:59:33.220Z,96724.29
2017-11-25T12:01:59.368Z,96722.06
2017-11-25T12:04:25.823Z,96712.91
2017-11-25T12:06:52.004Z,96716.00
2017-11-25T12:09:18.215Z,96711.34
2017-11-25T12:11:44.490Z,96710.32
2017-11-25T12:14:10.549Z,96705.16
2017-11-25T12:16:36.625Z,96710.36
2017-11-25T12:19:02.653Z,96696.86
2017-11-25T12:21:28.721Z,96697.21
2017-11-25T12:23:54.897Z,96701.59
2017-11-25T12:26:20.968Z,96703.31
2017-11-25T12:28:47.104Z,96700.95
2017-11-25T12:31:13.164Z,96702.78
2017-11-25T12:33:39.514Z,96705.09
2017-11-25T12:36:05.808Z,96698.14
2017-11-25T12:38:32.137Z,96692.17
2017-11-25T12:40:58.196Z,96684.98
2017-11-25T12:43:24.652Z,96678.00
2017-11-25T12:45:50.801Z,96673.88
2017-11-25T12:48:17.376Z,96660.05
2017-11-25T12:50:43.609Z,96658.41
2017-11-25T12:53:09.701Z,96671.77
2017-11-25T12:55:35.888Z,96686.79
2017-11-25T12:58:02.024Z,96681.60
2017-11-25T13:00:28.224Z,96684.56
2017-11-25T13:02:54.376Z,96686.17
2017-11-25T13:05:20.695Z,96687.09
2017-11-25T13:07:46.815Z,96681.83
2017-11-25T13:10:12.924Z,96685.91
2017-11-25T13:12:38.982Z,96689.39
2017-11-25T13:15:05.164Z,96690.71
2017-11-25T13:17:32.128Z,96676.44
2017-11-25T13:19:58.276Z,96676.47
2017-11-25T13:22:24.588Z,96675.02
2017-11-25T13:24:50.785Z,96676.06
2017-11-25T13:27:17.148Z,96678.17
2017-11-25T13:29:48.008Z,96676.63
2017-11-25T13:32:14.797Z,96681.95
2017-11-25T13:34:40.873Z,96682.06
2017-11-25T13:37:06.955Z,96684.95
2017-11-25T13:39:33.145Z,96680.89
2017-11-25T13:41:59.619Z,96690.98
2017-11-25T13:44:25.811Z,96683.02
2017-11-25T13:46:52.563Z,96685.07
2017-11-25T13:49:25.758Z,96686.39
2017-11-25T13:51:52.256Z,96680.90
2017-11-25T13:54:18.520Z,96695.85
2017-11-25T13:56:44.945Z,96691.74
2017-11-25T13:59:11.295Z,96698.96
2017-11-25T14:01:38.458Z,96696.72
2017-11-25T14:04:04.872Z,96703.96
2017-11-25T14:06:31.189Z,96693.37
2017-11-25T14:08:57.606Z,96698.19
2017-11-25T14:11:23.740Z,96699.72
2017-11-25T14:13:50.081Z,96705.05
2017-11-25T14:16:16.262Z,96705.96
2017-11-25T14:18:42.569Z,96709.28
2017-11-25T14:21:08.704Z,96710.89
2017-11-25T14:23:36.702Z,96706.34
2017-11-25T14:26:03.169Z,96707.39
2017-11-25T14:28:29.436Z,96709.15
2017-11-25T14:30:55.833Z,96705.59
2017-11-25T14:33:22.041Z,96701.05
2017-11-25T14:35:49.439Z,96701.95
2017-11-25T14:38:15.681Z,96694.84
2017-11-25T14:40:41.980Z,96703.72
2017-11-25T14:43:08.239Z,96705.78
2017-11-25T14:45:34.449Z,96710.32
2017-11-25T14:48:00.764Z,96707.00
2017-11-25T14:50:27.309Z,96710.66
2017-11-25T14:52:53.417Z,96713.77
2017-11-25T14:55:19.729Z,96716.01
2017-11-25T14:57:46.020Z,96712.59
2017-11-25T15:00:13.293Z,96714.41
2017-11-25T15:02:39.527Z,96713.97
2017-11-25T15:05:05.653Z,96720.80
2017-11-25T15:10:10.153Z,96722.68
2017-11-25T15:12:36.273Z,96726.30
2017-11-25T15:15:02.757Z,96727.91
2017-11-25T15:17:29.050Z,96739.55
2017-11-25T15:19:55.387Z,96741.56
2017-11-25T15:22:21.605Z,96740.55
2017-11-25T15:24:47.819Z,96738.31
2017-11-25T15:27:14.130Z,96736.13
2017-11-25T15:29:40.252Z,96738.75
2017-11-25T15:32:06.369Z,96743.14
2017-11-25T15:34:32.993Z,96751.03
2017-11-25T15:36:59.442Z,96755.66
2017-11-25T15:39:25.881Z,96759.45
2017-11-25T15:41:52.382Z,96775.86
2017-11-25T15:44:18.992Z,96762.16
2017-11-25T15:46:45.352Z,96765.39
2017-11-25T15:49:11.652Z,96761.34
2017-11-25T15:51:38.081Z,96776.36
2017-11-25T15:54:04.559Z,96781.86
2017-11-25T15:56:30.741Z,96790.00
2017-11-25T15:58:56.950Z,96793.88
2017-11-25T16:01:23.031Z,96801.48
2017-11-25T16:03:49.151Z,96810.24
2017-11-25T16:06:16.794Z,96812.82
2017-11-25T16:08:43.668Z,96819.52
2017-11-25T16:11:09.906Z,96819.78
2017-11-25T16:13:36.165Z,96821.27
2017-11-25T16:16:02.329Z,96818.64
2017-11-25T16:18:28.536Z,96812.22
2017-11-25T16:20:54.954Z,96825.29
2017-11-25T16:23:21.112Z,96836.36
2017-11-25T16:25:47.582Z,96844.89
2017-11-25T16:28:14.417Z,96853.37
2017-11-25T16:30:41.144Z,96864.42
2017-11-25T16:33:07.374Z,96867.86
2017-11-25T16:35:33.967Z,96858.20
2017-11-25T16:38:00.642Z,96860.31
2017-11-25T16:40:26.977Z,96861.17
2017-11-25T16:42:53.326Z,96873.78
2017-11-25T16:45:19.383Z,96880.20
2017-11-25T16:47:45.444Z,96881.16
2017-11-25T16:50:11.529Z,96886.41
2017-11-25T16:52:37.727Z,96885.34
2017-11-25T16:55:03.920Z,96886.34
2017-11-25T16:57:30.024Z,96896.72
2017-11-25T16:59:56.284Z,96904.45
2017-11-25T17:02:22.402Z,96903.91
2017-11-25T17:04:49.034Z,96908.88
2017-11-25T17:07:15.161Z,96908.15
2017-11-25T17:09:41.506Z,96913.06
2017-11-25T17:12:07.622Z,96917.78
2017-11-25T17:14:33.736Z,96922.78
2017-11-25T17:17:00.194Z,96929.27
2017-11-25T17:19:26.611Z,96931.27
2017-11-25T17:21:54.959Z,96925.99
2017-11-25T17:24:21.432Z,96926.97
2017-11-25T17:26:47.907Z,96926.14
2017-11-25T17:29:15.458Z,96918.50
2017-11-25T17:31:42.120Z,96919.84
2017-11-25T17:34:09.636Z,96925.16
2017-11-25T17:36:36.269Z,96921.16
2017-11-25T17:39:02.935Z,96927.57
2017-11-25T17:41:29.426Z,96933.11
2017-11-25T17:43:56.938Z,96932.08
2017-11-25T17:46:23.174Z,96949.14
2017-11-25T17:48:49.271Z,96955.35
2017-11-25T17:51:15.408Z,96958.12
2017-11-25T17:53:41.851Z,96956.97
2017-11-25T17:56:07.987Z,96961.42
2017-11-25T17:58:34.117Z,96964.22
2017-11-25T18:01:00.247Z,96962.21
2017-11-25T18:03:26.786Z,96965.34
2017-11-25T18:05:52.958Z,96969.47
2017-11-25T18:08:19.284Z,96974.95
2017-11-25T18:10:45.378Z,96977.72
2017-11-25T18:13:11.677Z,96981.81
2017-11-25T18:15:37.871Z,96984.94
2017-11-25T18:18:04.149Z,96991.37
2017-11-25T18:20:30.269Z,96997.84
2017-11-25T18:22:56.582Z,96999.67
2017-11-25T18:25:23.209Z,97003.73
2017-11-25T18:27:49.384Z,97004.67
2017-11-25T18:30:15.649Z,97005.82
2017-11-25T18:32:41.931Z,97014.48
2017-11-25T18:35:08.432Z,97013.44
2017-11-25T18:37:34.548Z,97010.92
2017-11-25T18:40:00.804Z,97008.80
2017-11-25T18:42:27.685Z,97010.89
2017-11-25T18:44:54.114Z,97010.53
2017-11-25T18:47:20.224Z,97016.67
2017-11-25T18:49:46.693Z,97016.66
2017-11-25T18:52:12.823Z,97019.72
2017-11-25T18:54:38.920Z,97018.45
2017-11-25T18:57:05.123Z,97032.22
2017-11-25T18:59:31.734Z,97024.67
2017-11-25T19:01:58.340Z,97026.50
2017-11-25T19:04:24.652Z,97041.13
2017-11-25T19:06:52.653Z,97053.91
2017-11-25T19:09:19.050Z,97056.93
2017-11-25T19:11:54.013Z,97060.91
2017-11-25T19:14:20.685Z,97060.45
2017-11-25T19:16:46.916Z,97056.20
2017-11-25T19:19:14.934Z,97062.16
2017-11-25T19:21:42.727Z,97070.38
2017-11-25T19:28:44.185Z,97072.55
2017-11-25T19:31:10.843Z,97073.33
2017-11-25T19:33:37.084Z,97074.50
2017-11-25T19:36:03.423Z,97078.91
2017-11-25T19:38:29.605Z,97076.06
2017-11-25T19:40:55.810Z,97071.63
2017-11-25T19:43:22.658Z,97076.71
2017-11-25T19:45:48.768Z,97072.10
2017-11-25T19:48:14.787Z,97069.36
2017-11-25T19:50:41.375Z,97072.97
2017-11-25T19:53:07.620Z,97072.25
2017-11-25T19:55:33.922Z,97079.53
2017-11-25T19:58:00.286Z,97082.89
2017-11-25T20:00:26.885Z,97080.49
2017-11-25T20:02:52.969Z,97082.16
2017-11-25T20:05:19.896Z,97094.20
2017-11-25T20:07:46.233Z,97097.37
2017-11-25T20:10:12.551Z,97098.36
2017-11-25T20:12:39.093Z,97097.70
2017-11-25T20:15:05.330Z,97095.16
2017-11-25T20:17:31.495Z,97098.37
2017-11-25T20:19:57.745Z,97091.07
2017-11-25T20:22:23.922Z,97082.91
2017-11-25T20:24:50.303Z,97079.53
2017-11-25T20:27:17.054Z,97087.33
2017-11-25T20:29:43.772Z,97088.81
2017-11-25T20:32:10.248Z,97089.91
2017-11-25T20:34:36.571Z,97092.25
2017-11-25T20:37:02.849Z,97095.06
2017-11-25T20:39:29.241Z,97094.75
2017-11-25T20:41:55.820Z,97093.16
2017-11-25T20:44:22.411Z,97107.58
2017-11-25T20:46:48.561Z,97109.04
2017-11-25T20:49:14.691Z,97114.29
2017-11-25T20:51:40.913Z,97114.37
2017-11-25T20:54:07.219Z,97109.59
2017-11-25T20:56:34.018Z,97104.96
2017-11-25T20:59:00.257Z,97112.13
2017-11-25T21:01:26.707Z,97111.50
2017-11-25T21:03:53.063Z,97116.05
2017-11-25T21:06:19.425Z,97124.17
2017-11-25T21:08:45.651Z,97131.08
2017-11-25T21:11:11.758Z,97144.05
2017-11-25T21:13:38.653Z,97151.02
2017-11-25T21:16:04.723Z,97155.27
2017-11-25T21:18:30.941Z,97163.69
2017-11-25T21:20:57.161Z,97159.97
2017-11-25T21:25:55.142Z,97175.69
2017-11-25T21:28:21.363Z,97173.91
2017-11-25T21:30:47.495Z,97176.53
2017-11-25T21:33:13.769Z,97186.41
2017-11-25T21:35:39.864Z,97188.33
2017-11-25T21:38:06.337Z,97189.86
2017-11-25T21:40:32.474Z,97189.39
2017-11-25T21:42:58.857Z,97195.69
2017-11-25T21:45:25.231Z,97206.59
2017-11-25T21:47:51.514Z,97212.30
2017-11-25T21:50:17.635Z,97216.56
2017-11-25T21:52:44.005Z,97219.31
2017-11-25T21:55:10.210Z,97213.48
2017-11-25T21:57:36.373Z,97217.49
2017-11-25T22:00:02.457Z,97224.92
2017-11-25T22:02:28.696Z,97214.20
2017-11-25T22:04:54.891Z,97218.03
2017-11-25T22:07:20.985Z,97219.98
2017-11-25T22:09:47.183Z,97226.50
2017-11-25T22:12:13.355Z,97229.94
2017-11-25T22:14:39.569Z,97231.42
2017-11-25T22:17:05.714Z,97232.96
2017-11-25T22:19:31.797Z,97245.08
2017-11-25T22:21:58.081Z,97243.78
2017-11-25T22:24:24.346Z,97244.13
2017-11-25T22:26:50.511Z,97247.88
2017-11-25T22:29:16.615Z,97254.29
2017-11-25T22:31:42.661Z,97260.30
2017-11-25T22:34:08.911Z,97261.56
2017-11-25T22:36:35.156Z,97266.04
2017-11-25T22:39:01.380Z,97277.81
2017-11-25T22:41:27.405Z,97276.95
2017-11-25T22:43:53.490Z,97283.59
2017-11-25T22:46:19.578Z,97293.52
2017-11-25T22:48:45.602Z,97302.13
2017-11-25T22:51:11.821Z,97305.48
2017-11-25T22:53:37.950Z,97317.86
2017-11-25T22:56:04.049Z,97316.38
2017-11-25T22:58:30.085Z,97322.21
2017-11-25T23:00:56.276Z,97321.03
2017-11-25T23:03:23.115Z,97328.75
2017-11-25T23:08:50.120Z,97340.25
2017-11-25T23:11:16.131Z,97343.58
2017-11-25T23:13:42.262Z,97344.27
2017-11-25T23:16:09.217Z,97350.63
2017-11-25T23:18:35.461Z,97356.36
2017-11-25T23:21:01.609Z,97356.66
2017-11-25T23:23:27.812Z,97368.92
2017-11-25T23:25:53.937Z,97380.63
2017-11-25T23:28:20.146Z,97384.66
2017-11-25T23:30:46.329Z,97391.81
2017-11-25T23:33:12.507Z,97392.19
2017-11-25T23:35:38.753Z,97396.23
2017-11-25T23:38:04.790Z,97401.42
2017-11-25T23:40:31.007Z,97402.58
2017-11-25T23:42:57.246Z,97419.00
2017-11-25T23:45:23.453Z,97419.09
2017-11-25T23:47:49.623Z,97429.34
2017-11-25T23:50:16.291Z,97428.22
2017-11-25T23:52:45.106Z,97436.55
2017-11-25T23:55:11.120Z,97438.02
2017-11-25T23:57:37.400Z,97443.98
